Terminal Aerodrome Forecast
Issued by NWS

Home | Current Version | Previous Version | Text Only | Print | Product List | Glossary On
Versions: 1 2 3 4 5 6 7 8 9 10 11 12 13 14 15 16 17 18 19 20 21 22 23 24 25 26 27 28 29 30 31
000
FTUS45 KSLC 251120
TAFSGU
TAF
KSGU 251120Z 2512/2612 VRB05KT P6SM BKN080 OVC150
     FM252000 24012G18KT P6SM VCSH BKN080 OVC150
     FM260000 VRB05KT P6SM -SHRA SCT035 BKN050 OVC080
     FM260600 24008KT P6SM SCT050 OVC100
      AMD LTD TO CLD VIS AND WIND=

USA.gov is the U.S. government's official web portal to all federal, state and local government web resources and services.